Terminal Aerodrome Forecast
Issued by NWS Northern Indiana

Home | Current Version | Previous Version | Graphics & Text | Print | Product List | Glossary On
Versions: 1 2 3 4 5 6 7 8 9 10 11 12 13 14 15 16
448
FTUS43 KIWX 282340
TAFFWA
TAF
KFWA 282340Z 2900/2924 VRB03KT P6SM SCT030 BKN200
     FM290800 VRB03KT 4SM BR SCT250
      TEMPO 2909/2912 2SM BR SCT005
     FM291200 06006KT P6SM FEW040 SCT150=

USA.gov is the U.S. government's official web portal to all federal, state and local government web resources and services.